Main page
METAR-TAF:

METAR-TAF

Airports :

Mehrabad International Airport

Tehran, Iran

latitude: 35-41N, longitude: 051-21E, elevation: 1204 m

Current weather observation

The report was made 18 minutes ago, at 20:30 UTC
Calm wind
Temperature 4°C
Humidity 56%
Pressure 1018 hPa
Visibility: 5000 m
Broken clouds at a height of 10000 ft
haze

METAR: OIII 292030Z 00000KT 5000 HZ BKN100 04/M04 Q1017 A3006

Time: 00:18 (20:48 UTC)

Forecast

The report was made 3 hours and 18 minutes ago, at 17:30 UTC
Forecast valid from 29 at 18 UTC to 30 at 24 UTC
Wind 4 kt from the West
Visibility: 5000 m
Few clouds at a height of 4000 ft
Scattered clouds at a height of 10000 ft
haze
Becoming
from 30 at 05 UTC to 30 at 07 UTC
Wind 12 kt from the West/Northwest
Visibility: 8000 m
Temporary
from 30 at 12 UTC to 30 at 18 UTC
Wind 14 kt from the Northwest with gusts up to 24 kt

TAF: OIII 291730Z 2918/3024 27004KT 5000 HZ FEW040 SCT100 BECMG 3005/3007 30012KT 8000 TEMPO 3012/3018 32014G24KT

Weather observations and forecasts of more than 4000 airports (METAR and TAF reports).

The available stations are represented by yellow and red dots on the map.

Hover mouse over dot to see the name of the station.

Then click to see weather observations and forecasts.

To change the map : click on the green buttons with a black cross to zoom in, on the green button with a dash to zoom out, or on the green arrows for adjacent maps.


METAR-TAF: